Storm Events Database

Event Details

Event Thunderstorm Wind
Magnitude 50 kts.
State VIRGINIA
County/Area PATRICK
WFO RNK
Begin Date 06/30/2012 20:15:00 EST-5
Begin Range 1
Begin Azimuth SW
Begin Location CLAUDVILLE
Begin Lat/Lon 36.64/-80.34
End Date 06/30/2012 20:30:00 EST-5
Deaths Direct/Indirect 0/0 (fatality details below, when available...)
Injuries Direct/Indirect 0/0
Property Damage 4.00K
Crop Damage
Episode Narrative A passing upper level disturbance interacted with a very unstable atmosphere near the surface to generate scattered large hail producing thunderstorms. Some of these were accompanied by damaging winds.
Event Narrative Thunderstorm winds blew down numerous large limbs on Dobyns Road. Damage values are estimated.


All events for this episode:

Location County/Zone St. Date Time T.Z. Type Mag Dth Inj PrD CrD
Totals: 0 0 201.00K 0.00K
CHECK FLOYD CO. VA 06/30/2012 16:58 EST-5 Hail 1.25 in. 0 0 0.00K 0.00K
CALLAWAY FRANKLIN CO. VA 06/30/2012 17:23 EST-5 Hail 1.75 in. 0 0 0.00K 0.00K
LAWYERS CAMPBELL CO. VA 06/30/2012 17:35 EST-5 Hail 0.75 in. 0 0 0.00K 0.00K
WAIDSBORO FRANKLIN CO. VA 06/30/2012 17:37 EST-5 Hail 1.75 in. 0 0 0.00K 0.00K
CERES BLAND CO. VA 06/30/2012 17:39 EST-5 Hail 1.00 in. 0 0 0.00K 0.00K
BURKES GARDEN TAZEWELL CO. VA 06/30/2012 17:45 EST-5 Hail 1.00 in. 0 0 0.00K 0.00K
LAWYERS CAMPBELL CO. VA 06/30/2012 17:45 EST-5 Hail 0.88 in. 0 0 0.00K 0.00K
BEDFORD SPGS CAMPBELL CO. VA 06/30/2012 17:59 EST-5 Hail 1.00 in. 0 0 0.00K 0.00K
BUSTHEAD TAZEWELL CO. VA 06/30/2012 18:04 EST-5 Hail 1.25 in. 0 0 0.00K 0.00K
LAWYERS CAMPBELL CO. VA 06/30/2012 18:07 EST-5 Hail 1.00 in. 0 0 0.00K 0.00K
CATRON WYTHE CO. VA 06/30/2012 18:21 EST-5 Hail 1.75 in. 0 0 0.00K 0.00K
BOXLEY GILES CO. VA 06/30/2012 18:37 EST-5 Thunderstorm Wind 50 kts. EG 0 0 1.00K 0.00K
ADRIA TAZEWELL CO. VA 06/30/2012 18:40 EST-5 Hail 2.00 in. 0 0 50.00K 0.00K
HILLTOWN CARROLL CO. VA 06/30/2012 18:40 EST-5 Hail 2.00 in. 0 0 50.00K 0.00K
WOOLWINE PATRICK CO. VA 06/30/2012 18:43 EST-5 Hail 1.00 in. 0 0 0.00K 0.00K
WOOLWINE PATRICK CO. VA 06/30/2012 18:43 EST-5 Thunderstorm Wind 50 kts. EG 0 0 0.00K 0.00K
GRATTON TAZEWELL CO. VA 06/30/2012 19:07 EST-5 Hail 1.75 in. 0 0 0.00K 0.00K
FANCY GAP CARROLL CO. VA 06/30/2012 19:17 EST-5 Hail 1.25 in. 0 0 0.00K 0.00K
STUART PATRICK CO. VA 06/30/2012 19:27 EST-5 Hail 0.88 in. 0 0 0.00K 0.00K
STUART PATRICK CO. VA 06/30/2012 19:27 EST-5 Thunderstorm Wind 55 kts. EG 0 0 10.00K 0.00K
PATRICK SPGS PATRICK CO. VA 06/30/2012 19:30 EST-5 Hail 1.75 in. 0 0 0.00K 0.00K
HAVEN WYTHE CO. VA 06/30/2012 19:45 EST-5 Hail 1.00 in. 0 0 0.00K 0.00K
WYTHEVILLE WYTHE CO. VA 06/30/2012 19:48 EST-5 Hail 0.88 in. 0 0 0.00K 0.00K
WYTHEVILLE ARPT WYTHE CO. VA 06/30/2012 19:50 EST-5 Thunderstorm Wind 50 kts. EG 0 0 2.50K 0.00K
CLAUDVILLE PATRICK CO. VA 06/30/2012 20:15 EST-5 Hail 1.00 in. 0 0 0.00K 0.00K
CLAUDVILLE PATRICK CO. VA 06/30/2012 20:15 EST-5 Thunderstorm Wind 50 kts. EG 0 0 4.00K 0.00K
FOSTERS FALLS WYTHE CO. VA 06/30/2012 20:15 EST-5 Thunderstorm Wind 50 kts. EG 0 0 0.50K 0.00K
GLADE HILL FRANKLIN CO. VA 06/30/2012 20:33 EST-5 Thunderstorm Wind 55 kts. EG 0 0 7.50K 0.00K
STUART PATRICK CO. VA 06/30/2012 20:45 EST-5 Thunderstorm Wind 60 kts. EG 0 0 75.00K 0.00K
STUART PATRICK CO. VA 06/30/2012 20:54 EST-5 Hail 0.88 in. 0 0 0.00K 0.00K
PATRICK SPGS PATRICK CO. VA 06/30/2012 21:28 EST-5 Thunderstorm Wind 50 kts. EG 0 0 0.50K 0.00K
GLADE HILL FRANKLIN CO. VA 06/30/2012 23:10 EST-5 Hail 1.25 in. 0 0 0.00K 0.00K
GLADE HILL FRANKLIN CO. VA 06/30/2012 23:12 EST-5 Hail 0.88 in. 0 0 0.00K 0.00K
Totals: 0 0 201.00K 0.00K